Flight Track Log - Related Links

Times and Time Zones

All times are in EDT time to prevent confusion due to time zone crossing. See the N108MV flight status page for this flight to view local times or setup timezone preferences in your user account.

Time Position Orientation Groundspeed Altitude Reporting Facility
EDT Latitude Longitude Course Direction KTS MPH feet Rate Location/Type
Tue 04:28:55 PM 40.9833 -72.5167 270° West 261 300 8,500  Level New York TRACON
Tue 04:29:55 PM 40.9833 -72.6167 270° West 295 339 7,900 -300 Descending New York TRACON
Tue 04:30:55 PM 40.9833 -72.7167 270° West 275 316 7,900 -48 Level New York TRACON
Tue 04:32:00 PM 40.9500 -72.8167 246° West 280 322 7,800 -48 Descending New York TRACON
Tue 04:33:01 PM 40.9000 -72.9000 232° Southwest 282 325 7,800  Level New York TRACON
Tue 04:34:00 PM 41.0000 -72.8763 270° West  Level FlightAware Approximate
Tue 04:34:01 PM 40.8667 -73.0000 246° West 274 315 7,800  Level New York TRACON
Tue 04:35:01 PM 40.8333 -73.0833 242° Southwest 281 323 7,800 100 Level New York TRACON
Tue 04:36:01 PM 40.8167 -73.1833 258° West 276 318 8,000 50 Climbing New York TRACON
Tue 04:37:01 PM 40.8167 -73.2833 270° West 278 320 7,900 1,810 Descending New York TRACON
Tue 04:38:07 PM 40.8500 -73.3667 298° West 218 251 11,800 3,350 Climbing New York TRACON
Tue 04:39:01 PM 40.8833 -73.4167 311° West 201 231 14,600 2,550 Climbing New York TRACON
Tue 04:40:07 PM 40.9333 -73.4833 315° West 247 284 16,900 1,143 Climbing New York TRACON
Tue 04:41:07 PM 40.9833 -73.5667 308° West 311 358 17,000 50 Climbing New York TRACON
Tue 04:42:07 PM 41.0500 -73.6667 311° West 337 388 17,000  Level New York TRACON
Tue 04:43:07 PM 41.1167 -73.7667 312° West 334 384 17,000  Level New York TRACON
Tue 04:44:07 PM 41.1500 -73.8667 294° West 335 386 17,000 -59 Level New York TRACON
Tue 04:44:49 PM 41.1500 -73.9564 270° West 330 380 16,900 -59 Descending New York Center
Tue 04:45:49 PM 41.1450 -74.0581 266° West 324 373 16,900 49 Level New York Center
Tue 04:46:51 PM 41.1706 -74.1889 285° West 329 379 17,000 49 Climbing New York Center
Tue 04:47:51 PM 41.1983 -74.3033 288° West 335 386 17,000 -50 Level New York Center
Tue 04:48:51 PM 41.2242 -74.4150 287° West 330 380 16,900 5,774 Descending New York Center
Tue 04:51:50 PM 41.2922 -74.6919 288° West 261 300 40,000 2,285 Climbing New York Center
Tue 04:52:50 PM 41.3103 -74.7761 286° West 261 300 26,000 -6,347 Descending New York Center
Tue 04:53:51 PM 41.3342 -74.8714 288° West 266 306 27,200 1,488 Climbing New York Center
Tue 04:54:51 PM 41.3536 -74.9664 285° West 266 306 29,000 1,800 Climbing New York Center
Tue 04:55:51 PM 41.3400 -75.0567 259° West 256 295 30,800 1,831 Climbing New York Center
Tue 04:56:49 PM 41.3264 -75.1469 259° West 251 289 32,600 1,627 Climbing New York Center
Tue 04:57:49 PM 41.3144 -75.2431 261° West 251 289 34,000 1,636 Climbing New York Center
Tue 04:58:50 PM 41.3053 -75.3169 261° West 251 289 35,900 1,623 Climbing New York Center
Tue 04:59:51 PM 41.2939 -75.3989 260° West 240 276 37,300 1,388 Climbing New York Center
Tue 05:00:51 PM 41.2822 -75.4811 259° West 235 270 38,700 1,271 Climbing New York Center
Tue 05:01:49 PM 41.2728 -75.5631 261° West 235 270 39,800 661 Climbing New York Center
Tue 05:02:49 PM 41.2586 -75.6533 258° West 241 277 40,000 98 Climbing New York Center
Tue 05:03:51 PM 41.2464 -75.7489 260° West 261 300 40,000  Level New York Center
Tue 05:04:51 PM 41.2311 -75.8583 260° West 285 328 40,000  Level New York Center
Tue 05:05:49 PM 41.2139 -75.9700 258° West 301 346 40,000  Level New York Center
Tue 05:06:50 PM 41.1986 -76.0819 260° West 315 362 40,000  Level New York Center
Tue 05:07:51 PM 41.1786 -76.2017 258° West 321 369 40,000  Level New York Center
Tue 05:08:51 PM 41.1622 -76.3272 260° West 321 369 40,000  Level New York Center
Tue 05:09:50 PM 41.1461 -76.4469 260° West 327 376 40,000  Level New York Center
Tue 05:10:50 PM 41.1300 -76.5642 260° West 332 382 40,000  Level New York Center
Tue 05:11:51 PM 41.1139 -76.6783 259° West 332 382 40,000  Level New York Center
Tue 05:12:51 PM 41.0978 -76.7928 259° West 332 382 40,000  Level New York Center
Tue 05:13:49 PM 41.0817 -76.9069 259° West 332 382 40,000  Level New York Center
Tue 05:14:50 PM 41.0650 -77.0239 259° West 332 382 40,000  Level New York Center
Tue 05:15:51 PM 41.0464 -77.1403 258° West 332 382 40,000  Level New York Center
Tue 05:18:11 PM 41.0050 -77.4133 259° West 321 369 40,000  Level Cleveland Center
Tue 05:19:11 PM 40.9875 -77.5297 259° West 321 369 40,000  Level Cleveland Center
Tue 05:20:11 PM 40.9675 -77.6489 258° West 326 375 40,000  Level Cleveland Center
Tue 05:21:11 PM 40.9497 -77.7653 259° West 326 375 40,000  Level Cleveland Center
Tue 05:22:11 PM 40.9317 -77.8842 259° West 332 382 40,000  Level Cleveland Center
Tue 05:23:11 PM 40.9156 -78.0031 260° West 332 382 40,000  Level Cleveland Center
Tue 05:24:11 PM 40.9308 -78.1261 279° West 332 382 40,000  Level Cleveland Center
Tue 05:25:11 PM 40.9458 -78.2381 280° West 339 390 40,000  Level Cleveland Center
Tue 05:26:11 PM 40.9606 -78.3558 279° West 339 390 40,000  Level Cleveland Center
Tue 05:27:11 PM 40.9775 -78.4792 280° West 339 390 40,000  Level Cleveland Center
Tue 05:28:11 PM 40.9922 -78.6025 279° West 339 390 40,000  Level Cleveland Center
Tue 05:29:11 PM 41.0069 -78.7231 279° West 339 390 40,000  Level Cleveland Center
Tue 05:30:11 PM 41.0233 -78.8436 280° West 334 384 40,000  Level Cleveland Center
Tue 05:31:11 PM 41.0356 -78.9644 278° West 334 384 40,000  Level Cleveland Center
Tue 05:32:11 PM 41.0497 -79.0881 279° West 334 384 40,000  Level Cleveland Center
Tue 05:33:11 PM 41.0639 -79.2117 279° West 334 384 40,000  Level Cleveland Center
Tue 05:34:11 PM 41.0778 -79.3325 279° West 334 384 40,000  Level Cleveland Center
Tue 05:35:11 PM 41.0914 -79.4564 278° West 334 384 40,000  Level Cleveland Center
Tue 05:36:11 PM 41.1031 -79.5772 277° West 334 384 40,000  Level Cleveland Center
Tue 05:37:11 PM 41.1164 -79.6983 278° West 334 384 40,000  Level Cleveland Center
Tue 05:38:11 PM 41.1300 -79.8389 277° West 334 384 40,000  Level Cleveland Center
Tue 05:39:11 PM 41.1433 -79.9628 278° West 339 390 40,000  Level Cleveland Center
Tue 05:40:11 PM 41.1564 -80.0703 279° West 339 390 40,000  Level Cleveland Center
Tue 05:41:11 PM 41.1692 -80.1969 278° West 339 390 40,000  Level Cleveland Center
Tue 05:42:11 PM 41.1842 -80.3211 279° West 344 396 40,000  Level Cleveland Center
Tue 05:43:11 PM 41.1947 -80.4453 276° West 344 396 40,000  Level Cleveland Center
Tue 05:44:11 PM 41.2075 -80.5694 278° West 349 402 40,000  Level Cleveland Center
Tue 05:45:11 PM 41.2200 -80.6936 278° West 349 402 40,000  Level Cleveland Center
Tue 05:46:11 PM 41.2322 -80.8150 278° West 349 402 40,000  Level Cleveland Center
Tue 05:47:11 PM 41.2444 -80.9422 277° West 344 396 40,000  Level Cleveland Center
Tue 05:48:11 PM 41.2564 -81.0775 277° West 350 403 40,000  Level Cleveland Center
Tue 05:49:11 PM 41.2683 -81.1964 278° West 343 395 40,000  Level Cleveland Center
Tue 05:50:11 PM 41.2800 -81.3181 277° West 338 389 40,000  Level Cleveland Center
Tue 05:51:11 PM 41.2939 -81.4261 280° West 331 381 40,000  Level Cleveland Center
Tue 05:52:11 PM 41.3056 -81.5478 277° West 331 381 40,000  Level Cleveland Center
Tue 05:53:11 PM 41.3147 -81.6694 276° West 331 381 40,000  Level Cleveland Center
Tue 05:54:11 PM 41.3261 -81.7914 277° West 331 381 40,000  Level Cleveland Center
Tue 05:55:11 PM 41.3394 -81.9078 279° West 331 381 40,000  Level Cleveland Center
Tue 05:56:11 PM 41.3483 -82.0325 275° West 331 381 40,000  Level Cleveland Center
Tue 05:57:11 PM 41.3569 -82.1711 275° West 336 387 40,000  Level Cleveland Center
Tue 05:58:11 PM 41.3636 -82.2875 274° West 331 381 40,000  Level Cleveland Center
Tue 05:59:11 PM 41.3722 -82.4094 275° West 331 381 40,000  Level Cleveland Center
Tue 06:00:11 PM 41.3783 -82.5314 274° West 336 387 40,000  Level Cleveland Center
Tue 06:01:11 PM 41.3847 -82.6506 274° West 331 381 40,000  Level Cleveland Center
Tue 06:02:11 PM 41.3908 -82.7725 274° West 331 381 40,000  Level Cleveland Center
Tue 06:03:11 PM 41.3989 -82.8944 275° West 331 381 40,000  Level Cleveland Center
Tue 06:04:11 PM 41.4047 -83.0139 274° West 331 381 40,000  Level Cleveland Center
Tue 06:05:11 PM 41.4103 -83.1358 274° West 331 381 40,000  Level Cleveland Center
Tue 06:06:11 PM 41.4161 -83.2525 274° West 331 381 40,000  Level Cleveland Center
Tue 06:07:11 PM 41.4214 -83.3772 273° West 331 381 40,000  Level Cleveland Center
Tue 06:08:11 PM 41.4267 -83.4967 273° West 331 381 40,000  Level Cleveland Center
Tue 06:09:11 PM 41.4339 -83.6217 274° West 331 381 40,000  Level Cleveland Center
Tue 06:10:11 PM 41.4389 -83.7436 273° West 331 381 40,000  Level Cleveland Center
Tue 06:11:11 PM 41.4439 -83.8631 273° West 331 381 40,000  Level Cleveland Center
Tue 06:12:14 PM 41.4525 -83.9753 276° West 330 380 40,000  Level Chicago Center
Tue 06:13:16 PM 41.4581 -84.0978 274° West 331 381 40,000  Level Chicago Center
Tue 06:14:18 PM 41.4647 -84.2436 274° West 329 379 40,000  Level Chicago Center
Tue 06:15:20 PM 41.4689 -84.3650 273° West 329 379 40,000  Level Chicago Center
Tue 06:16:22 PM 41.4744 -84.4872 274° West 331 381 40,000  Level Chicago Center
Tue 06:17:25 PM 41.4797 -84.6092 273° West 331 381 40,000  Level Chicago Center
Tue 06:18:27 PM 41.4836 -84.7308 272° West 329 379 40,000  Level Chicago Center
Tue 06:19:29 PM 41.4881 -84.8519 273° West 327 376 40,000  Level Chicago Center
Tue 06:20:31 PM 41.4931 -84.9981 273° West 328 377 40,000  Level Chicago Center
Tue 06:21:34 PM 41.4972 -85.1186 273° West 326 375 40,000  Level Chicago Center
Tue 06:22:35 PM 41.5006 -85.2394 272° West 324 373 40,000  Level Chicago Center
Tue 06:23:37 PM 41.5031 -85.3622 272° West 326 375 40,000  Level Chicago Center
Tue 06:24:39 PM 41.5069 -85.4875 272° West 328 377 40,000  Level Chicago Center
Tue 06:25:42 PM 41.5125 -85.6083 274° West 321 369 40,000  Level Chicago Center
Tue 06:26:44 PM 41.5158 -85.7272 272° West 318 366 40,000  Level Chicago Center
Tue 06:27:46 PM 41.5189 -85.8472 272° West 322 371 40,000  Level Chicago Center
Tue 06:28:48 PM 41.5233 -85.9897 272° West 319 367 40,000  Level Chicago Center
Tue 06:29:50 PM 41.5258 -86.1092 272° West 322 371 40,000  Level Chicago Center
Tue 06:30:52 PM 41.5281 -86.2281 271° West 321 369 40,000  Level Chicago Center
Tue 06:31:54 PM 41.5308 -86.3478 272° West 322 371 40,000  Level Chicago Center
Tue 06:32:56 PM 41.5325 -86.4675 271° West 324 373 40,000  Level Chicago Center
Tue 06:33:58 PM 41.5267 -86.5861 266° West 322 371 40,000  Level Chicago Center
Tue 06:35:01 PM 41.5183 -86.7161 265° West 324 373 40,000  Level Chicago Center
Tue 06:36:03 PM 41.5094 -86.8333 264° West 321 369 40,000  Level Chicago Center
Tue 06:37:05 PM 41.5008 -86.9767 265° West 324 373 40,000  Level Chicago Center
Tue 06:38:07 PM 41.4922 -87.0953 265° West 324 373 40,000  Level Chicago Center
Tue 06:39:09 PM 41.4842 -87.2150 265° West 326 375 40,000  Level Chicago Center
Tue 06:40:11 PM 41.4767 -87.3344 265° West 326 375 40,000  Level Chicago Center
Tue 06:41:13 PM 41.4686 -87.4547 265° West 328 377 40,000  Level Chicago Center
Tue 06:42:15 PM 41.4581 -87.5978 264° West 327 376 40,000  Level Chicago Center
Tue 06:43:17 PM 41.4494 -87.7181 265° West 329 379 40,000  Level Chicago Center
Tue 06:44:19 PM 41.4400 -87.8375 264° West 328 377 40,000  Level Chicago Center
Tue 06:45:21 PM 41.4333 -87.9511 266° West 328 377 40,000 -48 Level Chicago Center
Tue 06:46:24 PM 41.4217 -88.0953 264° West 327 376 39,900 -480 Descending Chicago Center
Tue 06:47:26 PM 41.4114 -88.2136 263° West 324 373 39,000 -823 Descending Chicago Center
Tue 06:48:28 PM 41.4031 -88.3250 264° West 322 371 38,200 -919 Descending Chicago Center
Tue 06:49:30 PM 41.3919 -88.4672 264° West 324 373 37,100 -968 Descending Chicago Center
Tue 06:50:32 PM 41.3822 -88.5844 264° West 322 371 36,200 -532 Descending Chicago Center
Tue 06:51:34 PM 41.3722 -88.7036 264° West 326 375 36,000 -97 Descending Chicago Center
Tue 06:52:36 PM 41.3622 -88.8261 264° West 333 383 36,000  Level Chicago Center
Tue 06:53:38 PM 41.3514 -88.9486 263° West 337 388 36,000  Level Chicago Center
Tue 06:54:40 PM 41.3392 -89.0953 264° West 336 387 36,000  Level Chicago Center
Tue 06:55:43 PM 41.3306 -89.2072 264° West 341 392 36,000  Level Chicago Center
Tue 06:56:45 PM 41.3206 -89.3319 264° West 342 394 36,000  Level Chicago Center
Tue 06:57:47 PM 41.3078 -89.4814 264° West 340 391 36,000 -97 Level Chicago Center
Tue 06:58:49 PM 41.2964 -89.6058 263° West 341 392 35,800 -484 Descending Chicago Center
Tue 06:59:51 PM 41.2842 -89.7361 263° West 355 409 35,000 -774 Descending Chicago Center
Tue 07:00:53 PM 41.2728 -89.8592 263° West 341 392 34,200 -774 Descending Chicago Center
Tue 07:01:55 PM 41.2614 -89.9806 263° West 333 383 33,400 -871 Descending Chicago Center
Tue 07:02:57 PM 41.2475 -90.1336 263° West 346 398 32,400 -919 Descending Chicago Center
Tue 07:03:59 PM 41.2347 -90.2617 262° West 352 405 31,500 -823 Descending Chicago Center
Tue 07:05:01 PM 41.2222 -90.3900 263° West 352 405 30,700 -816 Descending Chicago Center
Tue 07:06:04 PM 41.2100 -90.5156 263° West 346 398 29,800 -816 Descending Chicago Center
Tue 07:07:06 PM 41.1969 -90.6428 262° West 349 402 29,000 -823 Descending Chicago Center
Tue 07:08:08 PM 41.1836 -90.7756 262° West 364 419 28,100 -919 Descending Chicago Center
Tue 07:09:10 PM 41.1678 -90.9386 263° West 371 427 27,100 -1,597 Descending Chicago Center
Tue 07:10:12 PM 41.1542 -91.0683 262° West 358 412 24,800 -2,688 Descending Chicago Center
Tue 07:11:15 PM 41.1408 -91.1967 262° West 351 404 21,500 -3,145 Descending Chicago Center
Tue 07:12:16 PM 41.1267 -91.3236 262° West 350 403 18,300 -3,024 Descending Chicago Center
Tue 07:13:18 PM 41.1153 -91.4378 262° West 313 360 15,300 -3,048 Descending Chicago Center
Tue 07:14:20 PM 41.1014 -91.5656 262° West 292 336 12,000 -2,784 Descending Chicago Center
Tue 07:15:23 PM 41.0903 -91.6664 262° West 309 356 9,500 -2,381 Descending Chicago Center

Login

Don't have an account? Register now (free) for customized features, flight alerts, and more!